createdAt,value
2023-03-04T00:01:36.891Z,8.80
2023-03-04T00:04:05.201Z,8.80
2023-03-04T00:06:33.376Z,8.80
2023-03-04T00:09:03.953Z,8.80
2023-03-04T00:11:32.472Z,8.80
2023-03-04T00:14:00.740Z,8.80
2023-03-04T00:16:28.987Z,8.80
2023-03-04T00:18:59.802Z,8.80
2023-03-04T00:21:28.181Z,8.80
2023-03-04T00:23:56.462Z,8.80
2023-03-04T00:26:24.611Z,8.80
2023-03-04T00:28:52.860Z,8.80
2023-03-04T00:31:21.000Z,8.70
2023-03-04T00:33:49.208Z,8.60
2023-03-04T00:36:18.903Z,8.60
2023-03-04T00:38:47.122Z,8.60
2023-03-04T00:41:15.383Z,8.70
2023-03-04T00:43:43.617Z,8.60
2023-03-04T00:46:11.940Z,8.60
2023-03-04T00:48:40.292Z,8.70
2023-03-04T00:51:09.022Z,8.60
2023-03-04T00:53:38.549Z,8.70
2023-03-04T00:56:07.764Z,8.70
2023-03-04T00:58:35.936Z,8.60
2023-03-04T01:01:04.220Z,8.60
2023-03-04T01:03:33.138Z,8.60
2023-03-04T01:06:02.051Z,8.60
2023-03-04T01:08:30.227Z,8.60
2023-03-04T01:10:59.897Z,8.50
2023-03-04T01:13:28.099Z,8.50
2023-03-04T01:15:56.551Z,8.50
2023-03-04T01:18:24.799Z,8.50
2023-03-04T01:20:53.384Z,8.50
2023-03-04T01:23:21.789Z,8.50
2023-03-04T01:25:50.009Z,8.50
2023-03-04T01:28:19.544Z,8.50
2023-03-04T01:30:47.844Z,8.50
2023-03-04T01:33:16.201Z,8.50
2023-03-04T01:35:44.319Z,8.50
2023-03-04T01:38:12.842Z,8.50
2023-03-04T01:40:41.361Z,8.50
2023-03-04T01:43:12.537Z,8.40
2023-03-04T01:45:42.150Z,8.50
2023-03-04T01:48:13.361Z,8.40
2023-03-04T01:50:41.558Z,8.40
2023-03-04T01:53:19.344Z,8.50
2023-03-04T01:55:47.829Z,8.40
2023-03-04T01:58:16.036Z,8.40
2023-03-04T02:00:46.128Z,8.40
2023-03-04T02:03:19.650Z,8.40
2023-03-04T02:05:50.031Z,8.40
2023-03-04T02:08:20.690Z,8.30
2023-03-04T02:10:49.997Z,8.40
2023-03-04T02:13:18.910Z,8.30
2023-03-04T02:15:48.796Z,8.30
2023-03-04T02:18:19.668Z,8.20
2023-03-04T02:20:57.553Z,8.30
2023-03-04T02:23:30.638Z,8.20
2023-03-04T02:26:21.904Z,8.30
2023-03-04T02:28:51.722Z,8.30
2023-03-04T02:31:26.877Z,8.20
2023-03-04T02:33:58.192Z,8.20
2023-03-04T02:36:26.570Z,8.20
2023-03-04T02:38:56.408Z,8.20
2023-03-04T02:41:30.404Z,8.20
2023-03-04T02:43:58.575Z,8.20
2023-03-04T02:46:26.912Z,8.20
2023-03-04T02:48:55.322Z,8.20
2023-03-04T02:51:23.486Z,8.20
2023-03-04T02:53:51.684Z,8.20
2023-03-04T02:56:19.820Z,8.20
2023-03-04T02:58:49.462Z,8.20
2023-03-04T03:01:17.606Z,8.20
2023-03-04T03:03:45.697Z,8.10
2023-03-04T03:06:14.001Z,8.10
2023-03-04T03:08:42.142Z,8.10
2023-03-04T03:11:10.270Z,8.10
2023-03-04T03:13:38.411Z,8.10
2023-03-04T03:16:08.557Z,8.10
2023-03-04T03:18:36.735Z,8.10
2023-03-04T03:21:05.230Z,8.00
2023-03-04T03:23:33.383Z,8.00
2023-03-04T03:26:01.931Z,8.00
2023-03-04T03:28:30.218Z,8.00
2023-03-04T03:30:58.792Z,8.00
2023-03-04T03:33:28.889Z,8.00
2023-03-04T03:35:57.123Z,8.00
2023-03-04T03:38:25.311Z,8.00
2023-03-04T03:40:53.501Z,8.00
2023-03-04T03:43:21.778Z,8.00
2023-03-04T03:45:49.951Z,8.00
2023-03-04T03:48:18.184Z,8.00
2023-03-04T03:50:47.721Z,8.00
2023-03-04T03:53:15.857Z,8.00
2023-03-04T03:55:43.954Z,8.00
2023-03-04T03:58:12.122Z,8.00
2023-03-04T04:00:40.335Z,8.00
2023-03-04T04:03:08.591Z,8.00
2023-03-04T04:05:37.010Z,8.00
2023-03-04T04:08:06.961Z,7.90
2023-03-04T04:10:35.194Z,7.90
2023-03-04T04:13:03.401Z,7.90
2023-03-04T04:15:31.585Z,7.90
2023-03-04T04:17:59.764Z,7.90
2023-03-04T04:20:28.004Z,7.90
2023-03-04T04:22:56.347Z,7.90
2023-03-04T04:25:25.968Z,7.90
2023-03-04T04:27:54.200Z,7.90
2023-03-04T04:30:22.649Z,7.90
2023-03-04T04:32:50.867Z,7.80
2023-03-04T04:35:19.533Z,7.80
2023-03-04T04:37:47.753Z,7.80
2023-03-04T04:40:16.798Z,7.80
2023-03-04T04:42:46.301Z,7.80
2023-03-04T04:45:14.430Z,7.80
2023-03-04T04:47:42.667Z,7.80
2023-03-04T04:50:11.910Z,7.80
2023-03-04T04:52:40.027Z,7.70
2023-03-04T04:55:08.860Z,7.70
2023-03-04T04:57:37.290Z,7.70
2023-03-04T05:00:10.148Z,7.70
2023-03-04T05:02:38.593Z,7.70
2023-03-04T05:05:08.160Z,7.70
2023-03-04T05:07:36.482Z,7.60
2023-03-04T05:10:05.398Z,7.60
2023-03-04T05:12:33.696Z,7.60
2023-03-04T05:15:01.830Z,7.60
2023-03-04T05:17:31.520Z,7.60
2023-03-04T05:19:59.753Z,7.60
2023-03-04T05:22:28.063Z,7.60
2023-03-04T05:24:57.286Z,7.60
2023-03-04T05:27:25.432Z,7.60
2023-03-04T05:29:55.574Z,7.60
2023-03-04T05:32:23.865Z,7.60
2023-03-04T05:34:53.367Z,7.60
2023-03-04T05:37:21.573Z,7.60
2023-03-04T05:39:49.737Z,7.60
2023-03-04T05:42:17.806Z,7.50
2023-03-04T05:44:46.317Z,7.50
2023-03-04T05:47:14.488Z,7.50
2023-03-04T05:49:42.707Z,7.50
2023-03-04T05:52:12.191Z,7.50
2023-03-04T05:54:40.259Z,7.40
2023-03-04T05:57:08.474Z,7.40
2023-03-04T05:59:36.739Z,7.50
2023-03-04T06:02:04.974Z,7.50
2023-03-04T06:04:33.384Z,7.40
2023-03-04T06:07:01.663Z,7.50
2023-03-04T06:09:31.112Z,7.40
2023-03-04T06:11:59.333Z,7.40
2023-03-04T06:14:27.618Z,7.40
2023-03-04T06:16:55.840Z,7.40
2023-03-04T06:19:23.961Z,7.40
2023-03-04T06:21:52.105Z,7.40
2023-03-04T06:24:20.720Z,7.40
2023-03-04T06:26:50.463Z,7.40
2023-03-04T06:29:18.647Z,7.50
2023-03-04T06:31:46.862Z,7.40
2023-03-04T06:34:15.138Z,7.40
2023-03-04T06:36:43.383Z,7.50
2023-03-04T06:39:11.854Z,7.50
2023-03-04T06:41:40.117Z,7.50
2023-03-04T06:44:09.826Z,7.60
2023-03-04T06:46:38.074Z,7.60
2023-03-04T06:49:06.235Z,7.60
2023-03-04T06:51:34.425Z,7.70
2023-03-04T06:54:02.609Z,7.70
2023-03-04T06:56:30.811Z,7.70
2023-03-04T06:58:59.035Z,7.80
2023-03-04T07:01:30.095Z,7.80
2023-03-04T07:03:59.706Z,7.80
2023-03-04T07:06:29.092Z,7.90
2023-03-04T07:08:58.190Z,7.90
2023-03-04T07:11:27.151Z,8.00
2023-03-04T07:13:55.297Z,8.00
2023-03-04T07:16:24.522Z,8.10
2023-03-04T07:18:54.064Z,8.10
2023-03-04T07:21:22.274Z,8.20
2023-03-04T07:23:50.442Z,8.20
2023-03-04T07:26:19.322Z,8.30
2023-03-04T07:28:47.679Z,8.30
2023-03-04T07:31:25.534Z,8.40
2023-03-04T07:33:58.197Z,8.50
2023-03-04T07:36:27.059Z,8.50
2023-03-04T07:38:55.938Z,8.60
2023-03-04T07:41:25.936Z,8.60
2023-03-04T07:43:54.116Z,8.70
2023-03-04T07:46:22.406Z,8.70
2023-03-04T07:48:50.510Z,8.80
2023-03-04T07:51:22.400Z,8.80
2023-03-04T07:53:52.541Z,8.90
2023-03-04T07:56:23.377Z,8.90
2023-03-04T07:58:53.611Z,8.90
2023-03-04T08:01:24.491Z,9.00
2023-03-04T08:03:53.084Z,9.00
2023-03-04T08:06:23.797Z,9.10
2023-03-04T08:08:57.220Z,9.10
2023-03-04T08:11:25.711Z,9.20
2023-03-04T08:13:54.718Z,9.20
2023-03-04T08:16:24.789Z,9.30
2023-03-04T08:18:54.787Z,9.30
2023-03-04T08:21:26.185Z,9.30
2023-03-04T08:23:54.553Z,9.40
2023-03-04T08:26:25.424Z,9.40
2023-03-04T08:28:54.234Z,9.50
2023-03-04T08:31:23.066Z,9.50
2023-03-04T08:33:53.015Z,9.50
2023-03-04T08:36:22.954Z,9.50
2023-03-04T08:38:51.285Z,9.60
2023-03-04T08:41:19.401Z,9.60
2023-03-04T08:43:47.492Z,9.70
2023-03-04T08:46:15.845Z,9.70
2023-03-04T08:48:44.058Z,9.80
2023-03-04T08:51:15.065Z,9.90
2023-03-04T08:53:45.181Z,9.90
2023-03-04T08:56:14.188Z,9.90
2023-03-04T08:58:42.739Z,10.00
2023-03-04T09:01:13.429Z,10.00
2023-03-04T09:03:42.648Z,10.10
2023-03-04T09:06:13.168Z,10.10
2023-03-04T09:08:41.529Z,10.10
2023-03-04T09:11:11.344Z,10.10
2023-03-04T09:13:39.591Z,10.20
2023-03-04T09:16:11.298Z,10.20
2023-03-04T09:18:40.146Z,10.20
2023-03-04T09:21:09.001Z,10.20
2023-03-04T09:23:37.370Z,10.20
2023-03-04T09:26:17.149Z,10.30
2023-03-04T09:28:45.580Z,10.30
2023-03-04T09:31:14.817Z,10.30
2023-03-04T09:33:43.422Z,10.40
2023-03-04T09:36:13.448Z,10.40
2023-03-04T09:38:42.692Z,10.40
2023-03-04T09:41:16.408Z,10.40
2023-03-04T09:43:47.439Z,10.50
2023-03-04T09:46:19.748Z,10.50
2023-03-04T09:48:50.771Z,10.50
2023-03-04T09:51:24.338Z,10.50
2023-03-04T09:54:07.264Z,10.50
2023-03-04T09:56:37.733Z,10.60
2023-03-04T09:59:16.466Z,10.60
2023-03-04T10:01:50.628Z,10.60
2023-03-04T10:04:26.323Z,10.60
2023-03-04T10:06:55.678Z,10.70
2023-03-04T10:09:29.088Z,10.70
2023-03-04T10:12:02.938Z,10.70
2023-03-04T10:14:44.078Z,10.70
2023-03-04T10:17:18.514Z,10.70
2023-03-04T10:19:56.290Z,10.70
2023-03-04T10:22:31.119Z,10.70
2023-03-04T10:25:02.529Z,10.70
2023-03-04T10:27:32.213Z,10.70
2023-03-04T10:30:02.205Z,10.80
2023-03-04T10:32:30.455Z,10.80
2023-03-04T10:34:58.731Z,10.80
2023-03-04T10:37:46.388Z,10.80
2023-03-04T10:40:23.065Z,10.90
2023-03-04T10:42:51.538Z,10.90
2023-03-04T10:45:26.938Z,10.90
2023-03-04T10:47:56.586Z,10.90
2023-03-04T10:50:27.037Z,11.00
2023-03-04T10:52:56.370Z,11.00
2023-03-04T10:55:28.437Z,11.00
2023-03-04T10:58:03.086Z,11.10
2023-03-04T11:00:34.205Z,11.10
2023-03-04T11:03:26.983Z,11.10
2023-03-04T11:06:07.278Z,11.20
2023-03-04T11:08:35.452Z,11.20
2023-03-04T11:11:03.620Z,11.20
2023-03-04T11:13:32.710Z,11.30
2023-03-04T11:16:03.760Z,11.30
2023-03-04T11:18:41.140Z,11.30
2023-03-04T11:21:13.808Z,11.40
2023-03-04T11:23:48.278Z,11.30
2023-03-04T11:26:19.738Z,11.40
2023-03-04T11:28:53.651Z,11.40
2023-03-04T11:31:28.489Z,11.50
2023-03-04T11:34:02.538Z,11.50
2023-03-04T11:36:36.574Z,11.50
2023-03-04T11:39:06.264Z,11.60
2023-03-04T11:41:39.613Z,11.60
2023-03-04T11:44:09.003Z,11.60
2023-03-04T11:47:13.981Z,11.70
2023-03-04T11:50:02.117Z,11.70
2023-03-04T11:52:52.177Z,11.80
2023-03-04T11:55:30.754Z,11.80
2023-03-04T11:58:19.726Z,11.80
2023-03-04T12:00:53.261Z,11.80
2023-03-04T12:03:47.356Z,11.90
2023-03-04T12:06:27.311Z,11.90
2023-03-04T12:09:04.796Z,11.90
2023-03-04T12:11:44.264Z,12.00
2023-03-04T12:14:32.570Z,12.00
2023-03-04T12:17:31.683Z,12.00
2023-03-04T12:20:22.779Z,12.10
2023-03-04T12:22:58.761Z,12.10
2023-03-04T12:25:39.449Z,12.10
2023-03-04T12:28:40.563Z,12.10
2023-03-04T12:31:34.618Z,12.10
2023-03-04T12:34:33.685Z,12.20
2023-03-04T12:37:17.952Z,12.20
2023-03-04T12:40:02.023Z,12.30
2023-03-04T12:42:37.708Z,12.30
2023-03-04T12:45:19.777Z,12.30
2023-03-04T12:47:58.826Z,12.40
2023-03-04T12:50:40.601Z,12.40
2023-03-04T12:53:18.667Z,12.40
2023-03-04T12:55:51.063Z,12.50
2023-03-04T12:58:23.060Z,12.50
2023-03-04T13:00:59.524Z,12.40
2023-03-04T13:03:37.005Z,12.50
2023-03-04T13:06:12.310Z,12.50
2023-03-04T13:08:54.908Z,12.60
2023-03-04T13:11:55.926Z,12.60
2023-03-04T13:14:32.648Z,12.60
2023-03-04T13:17:02.742Z,12.60
2023-03-04T13:19:49.520Z,12.70
2023-03-04T13:22:54.715Z,12.70
2023-03-04T13:25:33.082Z,12.80
2023-03-04T13:28:27.541Z,12.80
2023-03-04T13:31:18.228Z,12.80
2023-03-04T13:33:53.710Z,12.80
2023-03-04T13:36:50.985Z,12.90
2023-03-04T13:39:34.758Z,12.90
2023-03-04T13:42:04.242Z,12.90
2023-03-04T13:45:01.735Z,12.90
2023-03-04T13:47:50.940Z,12.90
2023-03-04T13:50:41.477Z,12.90
2023-03-04T13:53:46.781Z,12.90
2023-03-04T13:56:37.573Z,12.90
2023-03-04T13:59:21.789Z,13.00
2023-03-04T14:01:56.896Z,13.00
2023-03-04T14:04:28.921Z,13.00
2023-03-04T14:06:59.486Z,13.00
2023-03-04T14:09:29.661Z,13.10
2023-03-04T14:12:00.410Z,13.10
2023-03-04T14:14:31.971Z,13.00
2023-03-04T14:17:04.222Z,13.00
2023-03-04T14:19:36.090Z,13.10
2023-03-04T14:22:04.374Z,13.10
2023-03-04T14:24:32.504Z,13.10
2023-03-04T14:27:13.125Z,13.20
2023-03-04T14:29:41.524Z,13.20
2023-03-04T14:32:13.498Z,13.20
2023-03-04T14:34:42.660Z,13.20
2023-03-04T14:37:22.836Z,13.20
2023-03-04T14:39:54.223Z,13.20
2023-03-04T14:42:23.945Z,13.20
2023-03-04T14:44:52.966Z,13.20
2023-03-04T14:47:38.089Z,13.20
2023-03-04T14:50:08.230Z,13.30
2023-03-04T14:52:38.743Z,13.30
2023-03-04T14:55:25.208Z,13.30
2023-03-04T14:57:58.545Z,13.30
2023-03-04T15:00:30.682Z,13.30
2023-03-04T15:03:02.986Z,13.40
2023-03-04T15:05:32.887Z,13.40
2023-03-04T15:08:03.716Z,13.40
2023-03-04T15:10:34.293Z,13.40
2023-03-04T15:13:04.613Z,13.40
2023-03-04T15:15:42.040Z,13.40
2023-03-04T15:18:23.285Z,13.40
2023-03-04T15:20:56.467Z,13.40
2023-03-04T15:23:24.789Z,13.40
2023-03-04T15:25:54.604Z,13.40
2023-03-04T15:28:23.647Z,13.40
2023-03-04T15:30:52.108Z,13.30
2023-03-04T15:33:21.785Z,13.30
2023-03-04T15:35:56.283Z,13.30
2023-03-04T15:38:25.475Z,13.30
2023-03-04T15:40:54.933Z,13.30
2023-03-04T15:43:24.880Z,13.30
2023-03-04T15:45:53.800Z,13.30
2023-03-04T15:48:23.859Z,13.30
2023-03-04T15:50:56.436Z,13.20
2023-03-04T15:53:29.594Z,13.20
2023-03-04T15:55:58.051Z,13.30
2023-03-04T15:58:27.293Z,13.30
2023-03-04T16:00:55.524Z,13.30
2023-03-04T16:03:25.022Z,13.30
2023-03-04T16:05:53.624Z,13.30
2023-03-04T16:08:25.068Z,13.30
2023-03-04T16:10:53.993Z,13.30
2023-03-04T16:13:24.258Z,13.20
2023-03-04T16:15:52.619Z,13.20
2023-03-04T16:18:21.082Z,13.20
2023-03-04T16:20:52.118Z,13.20
2023-03-04T16:23:23.874Z,13.20
2023-03-04T16:25:55.482Z,13.20
2023-03-04T16:28:24.121Z,13.20
2023-03-04T16:30:52.362Z,13.20
2023-03-04T16:33:20.525Z,13.20
2023-03-04T16:35:51.647Z,13.20
2023-03-04T16:38:26.052Z,13.10
2023-03-04T16:40:54.487Z,13.10
2023-03-04T16:43:23.111Z,13.10
2023-03-04T16:45:51.492Z,13.00
2023-03-04T16:48:20.385Z,13.00
2023-03-04T16:50:50.106Z,13.00
2023-03-04T16:53:27.963Z,13.00
2023-03-04T16:55:56.524Z,13.00
2023-03-04T16:58:24.745Z,13.00
2023-03-04T17:00:53.170Z,12.90
2023-03-04T17:03:21.365Z,12.90
2023-03-04T17:05:51.020Z,12.80
2023-03-04T17:08:19.160Z,12.80
2023-03-04T17:10:48.826Z,12.80
2023-03-04T17:13:16.967Z,12.80
2023-03-04T17:15:46.813Z,12.80
2023-03-04T17:18:15.038Z,12.80
2023-03-04T17:20:43.227Z,12.80
2023-03-04T17:23:12.825Z,12.80
2023-03-04T17:25:40.957Z,12.70
2023-03-04T17:28:09.164Z,12.70
2023-03-04T17:30:37.398Z,12.70
2023-03-04T17:33:05.638Z,12.70
2023-03-04T17:35:33.806Z,12.70
2023-03-04T17:38:02.013Z,12.60
2023-03-04T17:40:31.601Z,12.60
2023-03-04T17:42:59.941Z,12.60
2023-03-04T17:45:28.240Z,12.60
2023-03-04T17:47:56.384Z,12.60
2023-03-04T17:50:24.558Z,12.50
2023-03-04T17:52:52.808Z,12.50
2023-03-04T17:55:20.980Z,12.40
2023-03-04T17:57:52.936Z,12.40
2023-03-04T18:00:22.363Z,12.40
2023-03-04T18:02:50.468Z,12.30
2023-03-04T18:05:18.744Z,12.30
2023-03-04T18:07:46.993Z,12.30
2023-03-04T18:10:15.324Z,12.20
2023-03-04T18:12:43.478Z,12.20
2023-03-04T18:15:13.342Z,12.20
2023-03-04T18:17:42.443Z,12.10
2023-03-04T18:20:11.920Z,12.10
2023-03-04T18:22:40.033Z,12.10
2023-03-04T18:25:10.756Z,12.00
2023-03-04T18:27:39.785Z,12.00
2023-03-04T18:30:09.484Z,11.90
2023-03-04T18:32:51.294Z,11.90
2023-03-04T18:35:20.525Z,11.80
2023-03-04T18:37:48.912Z,11.80
2023-03-04T18:40:17.756Z,11.80
2023-03-04T18:42:45.994Z,11.70
2023-03-04T18:45:15.840Z,11.70
2023-03-04T18:47:49.489Z,11.70
2023-03-04T18:50:18.177Z,11.60
2023-03-04T18:52:46.360Z,11.50
2023-03-04T18:55:14.860Z,11.50
2023-03-04T18:57:46.998Z,11.40
2023-03-04T19:00:18.353Z,11.40
2023-03-04T19:02:52.201Z,11.40
2023-03-04T19:05:22.834Z,11.30
2023-03-04T19:07:51.310Z,11.30
2023-03-04T19:10:20.826Z,11.30
2023-03-04T19:12:49.171Z,11.20
2023-03-04T19:15:18.280Z,11.20
2023-03-04T19:17:47.941Z,11.10
2023-03-04T19:20:17.458Z,11.10
2023-03-04T19:22:45.873Z,11.00
2023-03-04T19:25:14.344Z,11.00
2023-03-04T19:27:42.628Z,11.00
2023-03-04T19:30:11.761Z,10.90
2023-03-04T19:32:39.970Z,10.90
2023-03-04T19:35:10.224Z,10.90
2023-03-04T19:37:38.473Z,10.80
2023-03-04T19:40:08.075Z,10.80
2023-03-04T19:42:36.984Z,10.80
2023-03-04T19:45:09.508Z,10.70
2023-03-04T19:47:38.039Z,10.70
2023-03-04T19:50:07.532Z,10.70
2023-03-04T19:52:37.438Z,10.60
2023-03-04T19:55:06.286Z,10.60
2023-03-04T19:57:34.891Z,10.60
2023-03-04T20:00:03.117Z,10.60
2023-03-04T20:02:31.480Z,10.50
2023-03-04T20:05:00.172Z,10.50
2023-03-04T20:07:28.327Z,10.50
2023-03-04T20:09:58.121Z,10.40
2023-03-04T20:12:26.349Z,10.40
2023-03-04T20:14:54.637Z,10.40
2023-03-04T20:17:22.796Z,10.40
2023-03-04T20:19:51.153Z,10.40
2023-03-04T20:22:19.392Z,10.40
2023-03-04T20:24:47.519Z,10.30
2023-03-04T20:27:17.458Z,10.30
2023-03-04T20:29:46.320Z,10.30
2023-03-04T20:32:14.500Z,10.30
2023-03-04T20:34:42.720Z,10.20
2023-03-04T20:37:10.917Z,10.20
2023-03-04T20:39:39.163Z,10.20
2023-03-04T20:42:07.708Z,10.20
2023-03-04T20:44:37.497Z,10.20
2023-03-04T20:47:06.429Z,10.20
2023-03-04T20:49:34.890Z,10.20
2023-03-04T20:52:06.648Z,10.20
2023-03-04T20:54:35.079Z,10.20
2023-03-04T20:57:05.445Z,10.20
2023-03-04T20:59:33.750Z,10.10
2023-03-04T21:02:03.348Z,10.10
2023-03-04T21:04:33.656Z,10.10
2023-03-04T21:07:02.183Z,10.10
2023-03-04T21:09:30.678Z,10.10
2023-03-04T21:12:00.800Z,10.10
2023-03-04T21:14:31.977Z,10.00
2023-03-04T21:17:02.869Z,10.00
2023-03-04T21:19:33.667Z,10.00
2023-03-04T21:22:02.619Z,10.00
2023-03-04T21:24:32.498Z,10.00
2023-03-04T21:27:01.597Z,10.00
2023-03-04T21:29:29.953Z,10.00
2023-03-04T21:32:12.972Z,10.00
2023-03-04T21:34:51.796Z,9.90
2023-03-04T21:37:20.553Z,9.90
2023-03-04T21:39:48.727Z,9.90
2023-03-04T21:42:17.090Z,9.90
2023-03-04T21:44:50.547Z,9.90
2023-03-04T21:47:19.638Z,9.90
2023-03-04T21:49:49.866Z,9.80
2023-03-04T21:52:19.737Z,9.80
2023-03-04T21:54:48.167Z,9.80
2023-03-04T21:57:16.321Z,9.80
2023-03-04T21:59:44.536Z,9.80
2023-03-04T22:02:16.172Z,9.80
2023-03-04T22:04:44.449Z,9.80
2023-03-04T22:07:15.087Z,9.80
2023-03-04T22:09:43.281Z,9.80
2023-03-04T22:12:11.575Z,9.70
2023-03-04T22:14:39.860Z,9.70
2023-03-04T22:17:08.064Z,9.70
2023-03-04T22:19:36.231Z,9.70
2023-03-04T22:22:04.427Z,9.70
2023-03-04T22:24:33.997Z,9.70
2023-03-04T22:27:02.218Z,9.70
2023-03-04T22:29:30.481Z,9.70
2023-03-04T22:31:58.751Z,9.70
2023-03-04T22:34:26.963Z,9.70
2023-03-04T22:36:55.165Z,9.60
2023-03-04T22:39:23.590Z,9.60
2023-03-04T22:41:53.125Z,9.60
2023-03-04T22:44:21.506Z,9.60
2023-03-04T22:46:49.926Z,9.60
2023-03-04T22:49:18.109Z,9.60
2023-03-04T22:51:46.392Z,9.60
2023-03-04T22:54:15.985Z,9.60
2023-03-04T22:56:44.726Z,9.50
2023-03-04T22:59:14.599Z,9.50
2023-03-04T23:01:42.865Z,9.60
2023-03-04T23:04:11.201Z,9.60
2023-03-04T23:06:39.383Z,9.60
2023-03-04T23:09:07.845Z,9.60
2023-03-04T23:11:36.575Z,9.60
2023-03-04T23:14:07.326Z,9.60
2023-03-04T23:16:42.287Z,9.60
2023-03-04T23:19:12.485Z,9.60
2023-03-04T23:21:40.729Z,9.60
2023-03-04T23:24:09.843Z,9.50
2023-03-04T23:26:41.935Z,9.50
2023-03-04T23:29:12.876Z,9.50
2023-03-04T23:31:42.721Z,9.50
2023-03-04T23:34:11.372Z,9.50
2023-03-04T23:36:39.820Z,9.40
2023-03-04T23:39:09.142Z,9.40
2023-03-04T23:41:37.296Z,9.40
2023-03-04T23:44:06.867Z,9.40
2023-03-04T23:46:37.085Z,9.40
2023-03-04T23:49:08.523Z,9.40
2023-03-04T23:51:37.282Z,9.40
2023-03-04T23:54:05.632Z,9.40
2023-03-04T23:56:33.880Z,9.30
2023-03-04T23:59:02.231Z,9.40
